createdAt,value
2022-09-06T00:01:22.375Z,90.90
2022-09-06T00:03:49.915Z,90.90
2022-09-06T00:06:19.562Z,90.90
2022-09-06T00:08:50.697Z,91.00
2022-09-06T00:11:18.553Z,90.90
2022-09-06T00:13:47.022Z,91.10
2022-09-06T00:16:20.949Z,91.00
2022-09-06T00:18:48.443Z,91.20
2022-09-06T00:21:16.070Z,91.30
2022-09-06T00:23:43.707Z,91.60
2022-09-06T00:26:11.668Z,91.60
2022-09-06T00:28:40.001Z,91.60
2022-09-06T00:31:12.518Z,91.50
2022-09-06T00:33:40.364Z,91.60
2022-09-06T00:36:09.042Z,91.70
2022-09-06T00:38:37.163Z,91.90
2022-09-06T00:41:05.667Z,92.10
2022-09-06T00:43:33.159Z,92.20
2022-09-06T00:46:02.292Z,92.80
2022-09-06T00:48:29.767Z,92.50
2022-09-06T00:51:01.446Z,92.60
2022-09-06T00:53:30.620Z,92.60
2022-09-06T00:55:58.322Z,92.70
2022-09-06T00:58:26.858Z,93.00
2022-09-06T01:00:54.277Z,93.10
2022-09-06T01:03:24.306Z,93.10
2022-09-06T01:05:59.253Z,93.30
2022-09-06T01:09:04.231Z,93.50
2022-09-06T01:11:58.339Z,93.60
2022-09-06T01:14:31.537Z,93.80
2022-09-06T01:17:03.031Z,93.70
2022-09-06T01:20:12.133Z,93.80
2022-09-06T01:22:57.893Z,93.90
2022-09-06T01:25:42.753Z,94.00
2022-09-06T01:28:45.097Z,94.20
2022-09-06T01:31:27.153Z,94.20
2022-09-06T01:34:18.890Z,94.30
2022-09-06T01:37:09.503Z,94.20
2022-09-06T01:39:39.647Z,94.30
2022-09-06T01:42:09.955Z,94.50
2022-09-06T01:44:40.122Z,94.50
2022-09-06T01:47:12.967Z,94.60
2022-09-06T01:50:06.259Z,94.50
2022-09-06T01:52:59.226Z,94.60
2022-09-06T01:55:50.359Z,94.70
2022-09-06T01:58:17.654Z,94.60
2022-09-06T02:01:03.504Z,94.60
2022-09-06T02:03:47.629Z,94.60
2022-09-06T02:06:23.717Z,94.90
2022-09-06T02:09:01.856Z,94.90
2022-09-06T02:11:35.747Z,94.90
2022-09-06T02:14:11.078Z,95.10
2022-09-06T02:16:42.717Z,95.20
2022-09-06T02:19:20.176Z,95.30
2022-09-06T02:21:51.642Z,95.30
2022-09-06T02:24:30.670Z,95.30
2022-09-06T02:26:58.063Z,95.40
2022-09-06T02:29:25.537Z,95.40
2022-09-06T02:32:02.687Z,95.60
2022-09-06T02:34:31.493Z,95.70
2022-09-06T02:37:00.195Z,96.00
2022-09-06T02:39:28.616Z,95.90
2022-09-06T02:41:56.308Z,95.90
2022-09-06T02:44:23.647Z,96.00
2022-09-06T02:46:53.803Z,96.10
2022-09-06T02:49:24.678Z,96.10
2022-09-06T02:51:51.933Z,96.10
2022-09-06T02:54:19.516Z,96.20
2022-09-06T02:56:51.537Z,96.30
2022-09-06T02:59:19.555Z,96.20
2022-09-06T03:01:48.889Z,96.30
2022-09-06T03:04:16.204Z,96.20
2022-09-06T03:06:43.542Z,96.20
2022-09-06T03:09:13.545Z,96.50
2022-09-06T03:11:41.281Z,96.50
2022-09-06T03:14:11.537Z,96.50
2022-09-06T03:16:38.925Z,96.50
2022-09-06T03:19:06.404Z,96.50
2022-09-06T03:21:33.795Z,96.70
2022-09-06T03:24:01.177Z,96.80
2022-09-06T03:26:30.170Z,96.80
2022-09-06T03:28:57.473Z,96.70
2022-09-06T03:31:24.869Z,96.90
2022-09-06T03:33:52.157Z,96.70
2022-09-06T03:36:19.904Z,96.80
2022-09-06T03:38:48.015Z,96.80
2022-09-06T03:41:15.452Z,96.90
2022-09-06T03:43:42.751Z,96.90
2022-09-06T03:46:10.119Z,97.10
2022-09-06T03:48:38.383Z,97.10
2022-09-06T03:51:06.331Z,97.10
2022-09-06T03:53:33.644Z,97.20
2022-09-06T03:56:03.588Z,97.40
2022-09-06T03:58:32.317Z,97.50
2022-09-06T04:01:01.803Z,97.50
2022-09-06T04:03:30.460Z,97.50
2022-09-06T04:06:00.736Z,97.60
2022-09-06T04:08:28.399Z,97.60
2022-09-06T04:10:57.274Z,97.80
2022-09-06T04:13:25.501Z,97.80
2022-09-06T04:15:53.018Z,98.00
2022-09-06T04:18:24.025Z,98.10
2022-09-06T04:20:52.986Z,98.30
2022-09-06T04:23:20.492Z,98.20
2022-09-06T04:25:53.194Z,98.20
2022-09-06T04:28:21.331Z,98.10
2022-09-06T04:31:05.520Z,98.10
2022-09-06T04:33:35.040Z,98.30
2022-09-06T04:36:04.139Z,98.10
2022-09-06T04:38:36.697Z,98.20
2022-09-06T04:41:05.152Z,98.30
2022-09-06T04:43:32.753Z,98.30
2022-09-06T04:46:07.674Z,98.30
2022-09-06T04:48:38.078Z,98.40
2022-09-06T04:51:09.122Z,98.40
2022-09-06T04:53:36.521Z,98.50
2022-09-06T04:56:03.939Z,98.60
2022-09-06T04:58:32.756Z,98.50
2022-09-06T05:01:00.286Z,98.40
2022-09-06T05:03:31.239Z,98.50
2022-09-06T05:06:18.985Z,98.70
2022-09-06T05:08:46.657Z,98.80
2022-09-06T05:11:14.606Z,98.70
2022-09-06T05:13:42.351Z,98.70
2022-09-06T05:16:10.346Z,98.60
2022-09-06T05:18:37.780Z,98.40
2022-09-06T05:21:05.225Z,98.40
2022-09-06T05:23:32.596Z,98.50
2022-09-06T05:25:59.922Z,98.50
2022-09-06T05:28:27.406Z,98.50
2022-09-06T05:31:12.483Z,98.30
2022-09-06T05:33:56.140Z,97.80
2022-09-06T05:36:32.307Z,97.50
2022-09-06T05:39:00.158Z,97.30
2022-09-06T05:41:27.908Z,97.40
2022-09-06T05:43:55.456Z,97.30
2022-09-06T05:46:22.753Z,97.30
2022-09-06T05:49:07.962Z,97.30
2022-09-06T05:51:35.359Z,97.20
2022-09-06T05:54:05.598Z,97.20
2022-09-06T05:56:32.942Z,97.20
2022-09-06T05:59:00.315Z,97.10
2022-09-06T06:01:30.531Z,97.00
2022-09-06T06:04:03.784Z,97.00
2022-09-06T06:06:35.212Z,97.00
2022-09-06T06:09:05.246Z,97.10
2022-09-06T06:11:32.764Z,97.10
2022-09-06T06:14:13.459Z,96.90
2022-09-06T06:16:45.532Z,97.00
2022-09-06T06:19:13.145Z,97.10
2022-09-06T06:21:43.819Z,97.30
2022-09-06T06:24:16.451Z,97.50
2022-09-06T06:26:44.307Z,97.00
2022-09-06T06:29:11.638Z,97.10
2022-09-06T06:31:40.931Z,97.10
2022-09-06T06:34:09.010Z,97.00
2022-09-06T06:36:37.113Z,96.90
2022-09-06T06:39:07.124Z,97.00
2022-09-06T06:41:34.702Z,97.10
2022-09-06T06:44:06.229Z,97.40
2022-09-06T06:46:36.514Z,97.40
2022-09-06T06:49:04.553Z,97.30
2022-09-06T06:51:36.055Z,97.20
2022-09-06T06:54:04.459Z,96.90
2022-09-06T06:56:37.246Z,96.40
2022-09-06T06:59:07.001Z,96.50
2022-09-06T07:01:35.543Z,96.20
2022-09-06T07:04:03.646Z,96.10
2022-09-06T07:09:19.677Z,96.00
2022-09-06T07:11:50.943Z,96.00
2022-09-06T07:14:18.851Z,95.90
2022-09-06T07:16:47.347Z,95.80
2022-09-06T07:22:11.703Z,94.70
2022-09-06T07:24:41.208Z,95.40
2022-09-06T07:29:55.936Z,95.60
2022-09-06T07:32:23.467Z,95.70
2022-09-06T07:34:53.190Z,95.70
2022-09-06T07:37:21.493Z,95.10
2022-09-06T07:39:48.843Z,95.50
2022-09-06T07:42:18.725Z,95.50
2022-09-06T07:44:52.022Z,95.40
2022-09-06T07:53:27.698Z,95.50
2022-09-06T07:55:59.470Z,95.30
2022-09-06T07:58:27.297Z,95.50
2022-09-06T08:00:54.675Z,95.10
2022-09-06T08:03:24.225Z,95.40
2022-09-06T08:11:34.383Z,94.80
2022-09-06T08:14:03.942Z,94.40
2022-09-06T08:16:33.159Z,94.60
2022-09-06T08:19:02.560Z,94.30
2022-09-06T08:21:32.283Z,94.50
2022-09-06T08:24:13.723Z,94.50
2022-09-06T08:27:03.887Z,94.70
2022-09-06T08:29:31.224Z,94.50
2022-09-06T08:31:58.568Z,94.60
2022-09-06T08:34:25.987Z,94.20
2022-09-06T08:36:53.292Z,94.10
2022-09-06T08:39:23.208Z,94.40
2022-09-06T08:42:05.864Z,94.70
2022-09-06T08:47:28.845Z,94.40
2022-09-06T08:50:25.947Z,94.40
2022-09-06T08:53:18.751Z,94.40
2022-09-06T08:56:20.621Z,94.30
2022-09-06T08:59:02.902Z,94.30
2022-09-06T09:01:46.894Z,94.20
2022-09-06T09:04:18.512Z,94.20
2022-09-06T09:07:02.993Z,94.30
2022-09-06T09:09:34.277Z,94.40
2022-09-06T09:12:02.291Z,94.40
2022-09-06T09:14:36.044Z,94.50
2022-09-06T09:17:23.532Z,94.50
2022-09-06T09:19:50.952Z,94.50
2022-09-06T09:22:21.684Z,94.70
2022-09-06T09:24:53.601Z,94.70
2022-09-06T09:27:25.809Z,94.80
2022-09-06T09:32:46.140Z,94.80
2022-09-06T09:35:35.000Z,94.70
2022-09-06T09:41:33.382Z,94.20
2022-09-06T09:44:04.843Z,94.20
2022-09-06T09:46:33.425Z,94.20
2022-09-06T09:49:14.121Z,94.10
2022-09-06T09:51:42.815Z,94.10
2022-09-06T09:54:13.040Z,94.20
2022-09-06T09:56:46.070Z,94.20
2022-09-06T09:59:44.914Z,94.10
2022-09-06T10:02:35.867Z,94.20
2022-09-06T10:05:23.446Z,94.20
2022-09-06T10:07:53.311Z,94.20
2022-09-06T10:10:31.468Z,94.10
2022-09-06T10:13:10.568Z,94.10
2022-09-06T10:15:40.878Z,93.90
2022-09-06T10:18:18.854Z,94.00
2022-09-06T10:21:02.703Z,93.90
2022-09-06T10:26:37.759Z,93.90
2022-09-06T10:29:50.147Z,93.90
2022-09-06T10:33:07.959Z,93.80
2022-09-06T10:35:37.629Z,93.70
2022-09-06T10:38:26.365Z,93.60
2022-09-06T10:40:53.651Z,93.50
2022-09-06T10:43:21.009Z,92.90
2022-09-06T10:46:05.144Z,92.70
2022-09-06T10:48:42.968Z,93.00
2022-09-06T10:51:37.742Z,92.60
2022-09-06T10:54:08.789Z,92.70
2022-09-06T10:57:00.197Z,92.30
2022-09-06T10:59:55.507Z,92.10
2022-09-06T11:02:45.089Z,92.10
2022-09-06T11:05:40.277Z,91.90
2022-09-06T11:11:23.270Z,92.20
2022-09-06T11:13:50.650Z,92.20
2022-09-06T17:24:32.639Z,73.40
2022-09-06T17:27:00.160Z,75.10
2022-09-06T17:29:28.108Z,75.20
2022-09-06T17:31:56.233Z,76.00
2022-09-06T17:34:24.376Z,75.70
2022-09-06T17:36:55.669Z,75.40
2022-09-06T17:39:23.735Z,75.50
2022-09-06T17:41:53.601Z,75.80
2022-09-06T17:44:25.351Z,75.60
2022-09-06T17:47:13.095Z,75.50
2022-09-06T17:49:42.882Z,76.40
2022-09-06T17:52:13.854Z,75.80
2022-09-06T17:54:41.683Z,75.40
2022-09-06T17:57:09.205Z,75.50
2022-09-06T17:59:36.674Z,75.40
2022-09-06T18:02:05.500Z,75.40
2022-09-06T18:04:33.620Z,75.50
2022-09-06T18:07:01.125Z,75.50
2022-09-06T18:09:28.684Z,76.00
2022-09-06T18:11:56.983Z,76.50
2022-09-06T18:14:24.385Z,76.10
2022-09-06T18:16:52.385Z,76.60
2022-09-06T18:19:20.382Z,76.70
2022-09-06T18:21:48.993Z,77.10
2022-09-06T18:24:16.643Z,77.00
2022-09-06T18:26:45.110Z,77.20
2022-09-06T18:29:16.848Z,77.00
2022-09-06T18:31:45.167Z,77.30
2022-09-06T18:34:13.288Z,77.20
2022-09-06T18:36:42.447Z,77.50
2022-09-06T18:42:57.435Z,77.30
2022-09-06T18:45:24.861Z,77.60
2022-09-06T18:47:52.846Z,77.30
2022-09-06T18:50:22.009Z,77.50
2022-09-06T18:52:50.171Z,77.60
2022-09-06T18:55:17.554Z,77.70
2022-09-06T18:57:45.167Z,77.90
2022-09-06T19:00:13.439Z,78.00
2022-09-06T19:02:41.962Z,77.50
2022-09-06T19:05:09.590Z,77.40
2022-09-06T19:07:36.994Z,77.40
2022-09-06T19:10:05.234Z,77.70
2022-09-06T19:12:32.984Z,78.30
2022-09-06T19:15:00.367Z,78.20
2022-09-06T19:17:28.325Z,78.40
2022-09-06T19:19:55.787Z,78.70
2022-09-06T19:22:23.162Z,78.60
2022-09-06T19:24:50.528Z,78.90
2022-09-06T19:27:17.928Z,78.90
2022-09-06T19:29:46.926Z,78.60
2022-09-06T19:32:14.930Z,78.20
2022-09-06T19:34:42.353Z,78.10
2022-09-06T19:37:09.729Z,77.60
2022-09-06T19:39:40.461Z,77.80
2022-09-06T19:42:08.081Z,77.70
2022-09-06T19:44:35.976Z,77.70
2022-09-06T19:47:03.541Z,78.90
2022-09-06T19:49:30.979Z,79.70
2022-09-06T19:51:58.430Z,79.90
2022-09-06T19:54:26.024Z,79.90
2022-09-06T19:56:53.460Z,79.90
2022-09-06T19:59:20.902Z,80.10
2022-09-06T20:01:53.100Z,80.50
2022-09-06T20:04:21.661Z,80.90
2022-09-06T20:06:50.250Z,81.10
2022-09-06T20:09:18.861Z,81.50
2022-09-06T20:11:47.645Z,81.90
2022-09-06T20:14:15.935Z,81.90
2022-09-06T20:16:45.794Z,82.60
2022-09-06T20:19:15.205Z,83.20
2022-09-06T20:21:43.580Z,83.40
2022-09-06T20:24:11.476Z,83.60
2022-09-06T20:26:40.650Z,83.70
2022-09-06T20:29:11.737Z,83.70
2022-09-06T20:31:39.925Z,84.00
2022-09-06T20:34:08.750Z,84.00
2022-09-06T20:36:36.762Z,84.50
2022-09-06T20:39:05.052Z,84.50
2022-09-06T20:41:34.058Z,84.70
2022-09-06T20:44:02.818Z,85.40
2022-09-06T20:46:33.920Z,86.60
2022-09-06T20:49:04.572Z,87.00
2022-09-06T20:51:34.599Z,87.40
2022-09-06T20:54:04.474Z,88.30
2022-09-06T20:56:34.754Z,88.50
2022-09-06T20:59:06.571Z,88.70
2022-09-06T21:01:41.838Z,89.00
2022-09-06T21:04:11.520Z,89.10
2022-09-06T21:06:40.302Z,89.10
2022-09-06T21:09:11.076Z,89.20
2022-09-06T21:11:39.559Z,89.10
2022-09-06T21:14:08.048Z,89.30
2022-09-06T21:16:36.951Z,89.60
2022-09-06T21:19:09.611Z,89.70
2022-09-06T21:21:39.861Z,90.00
2022-09-06T21:24:08.939Z,90.10
2022-09-06T21:26:38.465Z,90.20
2022-09-06T21:29:06.817Z,90.30
2022-09-06T21:31:37.022Z,90.00
2022-09-06T21:34:11.505Z,90.00
2022-09-06T21:36:43.127Z,89.60
2022-09-06T21:39:16.999Z,90.00
2022-09-06T21:41:46.223Z,89.20
2022-09-06T21:44:15.457Z,88.90
2022-09-06T21:46:45.082Z,88.50
2022-09-06T21:49:14.860Z,88.30
2022-09-06T21:51:44.036Z,87.70
2022-09-06T21:56:41.552Z,87.50
2022-09-06T21:59:11.204Z,87.60
2022-09-06T22:01:40.669Z,87.70
2022-09-06T22:04:08.904Z,87.50
2022-09-06T22:06:36.521Z,87.20
2022-09-06T22:09:11.443Z,87.30
2022-09-06T22:11:41.644Z,87.00
2022-09-06T22:14:12.755Z,86.70
2022-09-06T22:16:41.929Z,86.40
2022-09-06T22:19:11.567Z,86.50
2022-09-06T22:21:40.657Z,86.80
2022-09-06T22:24:13.084Z,86.70
2022-09-06T22:26:42.883Z,86.70
2022-09-06T22:29:12.537Z,86.40
2022-09-06T22:31:40.730Z,86.50
2022-09-06T22:34:10.827Z,86.70
2022-09-06T22:36:40.604Z,86.40
2022-09-06T22:39:09.802Z,86.40
2022-09-06T22:41:38.675Z,86.60
2022-09-06T22:44:06.878Z,86.40
2022-09-06T22:46:34.435Z,86.50
2022-09-06T22:49:03.968Z,86.40
2022-09-06T22:51:31.499Z,86.40
2022-09-06T22:53:58.893Z,86.30
2022-09-06T22:56:26.271Z,86.40
2022-09-06T22:58:56.657Z,86.50
2022-09-06T23:01:24.100Z,86.80
2022-09-06T23:03:54.534Z,86.70
2022-09-06T23:06:22.260Z,87.10
2022-09-06T23:08:49.866Z,87.20
2022-09-06T23:11:20.231Z,87.10
2022-09-06T23:13:47.917Z,87.10
2022-09-06T23:16:21.403Z,86.90
2022-09-06T23:18:50.417Z,87.00
2022-09-06T23:21:22.744Z,86.80
2022-09-06T23:23:53.373Z,87.00
2022-09-06T23:26:25.759Z,87.00
2022-09-06T23:28:57.271Z,87.20
2022-09-06T23:31:29.346Z,87.20
2022-09-06T23:33:59.562Z,87.40
2022-09-06T23:36:29.379Z,87.70
2022-09-06T23:39:00.076Z,87.70
2022-09-06T23:41:29.722Z,88.50
2022-09-06T23:43:58.913Z,88.10
2022-09-06T23:46:27.909Z,88.00
2022-09-06T23:48:57.122Z,88.10
2022-09-06T23:51:32.860Z,88.40
2022-09-06T23:54:10.547Z,88.50
2022-09-06T23:56:44.328Z,88.40
2022-09-06T23:59:39.099Z,88.60
